Time;durP1;ratioP1;P1;durP2;ratioP2;P2;SDS_P1;SDS_P2;PMS_P1;PMS_P2;Temp;Humidity;BMP_temperature;BMP_pressure;BME280_temperature;BME280_humidity;BME280_pressure;Samples;Min_cycle;Max_cycle;Signal;HPM_P1;HPM_P2
2023/01/04 00:01:00;;;;;;;9.10;1.97;;;;;;;-145.18;100.00;60484.78;4997958;28;20026;-77
2023/01/04 00:03:26;;;;;;;3.90;1.57;;;;;;;-145.18;100.00;60484.78;4997563;28;20034;-77
2023/01/04 00:05:52;;;;;;;8.57;1.70;;;;;;;-145.18;100.00;60484.78;5003141;28;20033;-77
2023/01/04 00:08:17;;;;;;;11.53;2.30;;;;;;;-145.18;100.00;60484.78;5000978;28;20057;-78
2023/01/04 00:10:43;;;;;;;7.87;2.20;;;;;;;-145.18;100.00;60484.78;5000219;28;20033;-78
2023/01/04 00:13:08;;;;;;;6.90;1.90;;;;;;;-145.18;100.00;60484.78;5003710;28;20478;-78
2023/01/04 00:15:33;;;;;;;7.93;2.00;;;;;;;-145.18;100.00;60484.78;5009675;28;20030;-79
2023/01/04 00:17:59;;;;;;;6.07;1.80;;;;;;;-145.18;100.00;60484.78;5008589;28;20021;-78
2023/01/04 00:20:24;;;;;;;10.53;2.00;;;;;;;-145.18;100.00;60484.78;5007690;28;20055;-78
2023/01/04 00:22:50;;;;;;;6.97;1.90;;;;;;;-145.18;100.00;60484.78;5009176;28;20030;-78
2023/01/04 00:25:15;;;;;;;6.00;1.70;;;;;;;-145.18;100.00;60484.78;5009710;28;20394;-78
2023/01/04 00:27:41;;;;;;;4.90;1.60;;;;;;;-145.18;100.00;60484.78;5009756;28;20026;-78
2023/01/04 00:30:07;;;;;;;6.83;1.67;;;;;;;-145.18;100.00;60484.78;5010226;28;20025;-77
2023/01/04 00:32:32;;;;;;;5.73;1.80;;;;;;;-145.18;100.00;60484.78;5006948;28;20118;-78
2023/01/04 00:34:57;;;;;;;6.97;1.73;;;;;;;-145.18;100.00;60484.78;5009474;28;20104;-78
2023/01/04 00:37:23;;;;;;;3.70;1.33;;;;;;;-145.18;100.00;60484.78;5009232;28;20024;-78
2023/01/04 00:39:48;;;;;;;3.50;1.23;;;;;;;-145.18;100.00;60484.78;5012488;28;20109;-77
2023/01/04 00:42:13;;;;;;;7.10;2.60;;;;;;;-145.18;100.00;60484.78;5008342;28;20652;-78
2023/01/04 00:44:39;;;;;;;5.97;1.57;;;;;;;-145.18;100.00;60484.78;5008635;28;20105;-78
2023/01/04 00:47:04;;;;;;;10.33;1.70;;;;;;;-145.18;100.00;60484.78;5008360;28;20076;-76
2023/01/04 00:49:30;;;;;;;7.27;1.83;;;;;;;-145.18;100.00;60484.78;5009629;28;20077;-78
2023/01/04 00:51:56;;;;;;;3.83;1.70;;;;;;;-145.18;100.00;60484.78;5008636;28;20421;-76
2023/01/04 00:54:22;;;;;;;4.87;1.60;;;;;;;-145.18;100.00;60484.78;5008928;28;20080;-77
2023/01/04 00:56:48;;;;;;;50.73;2.50;;;;;;;-145.18;100.00;60484.78;5008885;28;20477;-79
2023/01/04 00:59:16;;;;;;;4.73;1.60;;;;;;;-145.18;100.00;60484.78;4997299;28;20026;-78
2023/01/04 01:01:42;;;;;;;7.30;1.60;;;;;;;-145.18;100.00;60484.78;4999075;28;20033;-78
2023/01/04 01:04:10;;;;;;;5.70;1.47;;;;;;;-145.18;100.00;60484.78;5003016;28;20534;-78
2023/01/04 01:06:35;;;;;;;5.83;1.70;;;;;;;-145.18;100.00;60484.78;5006245;28;20386;-77
2023/01/04 01:09:01;;;;;;;6.37;1.70;;;;;;;-145.18;100.00;60484.78;5007435;28;20024;-78
2023/01/04 01:11:28;;;;;;;7.53;1.80;;;;;;;-145.18;100.00;60484.78;5001472;28;20010;-78
2023/01/04 01:13:53;;;;;;;7.57;1.40;;;;;;;-145.18;100.00;60484.78;5005983;28;20041;-78
2023/01/04 01:16:21;;;;;;;6.40;1.80;;;;;;;-145.18;100.00;60484.78;5008015;28;20080;-77
2023/01/04 01:18:46;;;;;;;12.50;3.67;;;;;;;-145.18;100.00;60484.78;5013177;28;20053;-78
2023/01/04 01:21:21;;;;;;;7.83;1.60;;;;;;;-145.18;100.00;60484.78;5015181;28;20022;-78
2023/01/04 01:23:47;;;;;;;6.70;1.50;;;;;;;-145.18;100.00;60484.78;5010801;28;20030;-76
2023/01/04 01:26:15;;;;;;;4.53;1.43;;;;;;;-145.18;100.00;60484.78;5011385;28;20030;-78
2023/01/04 01:28:41;;;;;;;5.37;1.47;;;;;;;-145.18;100.00;60484.78;5023468;28;20025;-77
2023/01/04 01:31:10;;;;;;;5.30;2.00;;;;;;;-145.18;100.00;60484.78;5005135;28;20018;-78
2023/01/04 01:33:46;;;;;;;5.63;1.30;;;;;;;-145.18;100.00;60484.78;5007578;28;20034;-78
2023/01/04 01:36:13;;;;;;;5.47;1.60;;;;;;;-145.18;100.00;60484.78;5013245;28;20030;-78
2023/01/04 01:38:39;;;;;;;6.80;1.70;;;;;;;-145.18;100.00;60484.78;5010196;28;20474;-78
2023/01/04 01:41:07;;;;;;;5.50;1.63;;;;;;;-145.18;100.00;60484.78;5010669;28;20041;-78
2023/01/04 01:43:45;;;;;;;5.23;1.60;;;;;;;-145.18;100.00;60484.78;5007226;28;20119;-78
2023/01/04 01:46:12;;;;;;;7.93;1.50;;;;;;;-145.18;100.00;60484.78;5009927;28;20026;-78
2023/01/04 01:48:38;;;;;;;6.23;1.53;;;;;;;-145.18;100.00;60484.78;5010747;28;20037;-76
2023/01/04 01:51:04;;;;;;;5.17;1.50;;;;;;;-145.18;100.00;60484.78;5010899;28;20028;-78
2023/01/04 01:53:34;;;;;;;10.80;2.67;;;;;;;-145.18;100.00;60484.78;5009290;28;20544;-77
2023/01/04 01:56:02;;;;;;;5.73;1.70;;;;;;;-145.18;100.00;60484.78;5007811;28;20083;-77
2023/01/04 01:58:31;;;;;;;5.57;1.27;;;;;;;-145.18;100.00;60484.78;5006751;28;20021;-78
2023/01/04 02:00:58;;;;;;;8.00;2.17;;;;;;;-145.18;100.00;60484.78;5012447;28;20018;-76
2023/01/04 02:03:30;;;;;;;3.73;1.30;;;;;;;-145.18;100.00;60484.78;5032931;22;20117;-63
2023/01/04 02:05:57;;;;;;;8.73;1.53;;;;;;;-145.18;100.00;60484.78;5069980;22;20123;-63
2023/01/04 02:08:24;;;;;;;7.83;1.70;;;;;;;-145.18;100.00;60484.78;5067537;28;20132;-63
2023/01/04 02:10:50;;;;;;;7.43;1.73;;;;;;;-145.18;100.00;60484.78;5069880;28;20025;-64
2023/01/04 02:13:19;;;;;;;6.73;1.50;;;;;;;-145.18;100.00;60484.78;5072193;28;20032;-63
2023/01/04 02:15:56;;;;;;;6.53;1.93;;;;;;;-145.18;100.00;60484.78;5068547;28;20024;-63
2023/01/04 02:18:36;;;;;;;5.40;1.30;;;;;;;-145.18;100.00;60484.78;5070994;28;20522;-64
2023/01/04 02:21:07;;;;;;;4.53;1.20;;;;;;;-145.18;100.00;60484.78;5066003;28;20025;-63
2023/01/04 02:24:02;;;;;;;6.78;1.20;;;;;;;-145.18;100.00;60484.78;5065993;28;20032;-64
2023/01/04 02:27:02;;;;;;;7.90;1.47;;;;;;;-145.18;100.00;60484.78;5062775;28;20374;-63
2023/01/04 02:29:56;;;;;;;7.07;1.80;;;;;;;-145.18;100.00;60484.78;4988612;28;20548;-63
2023/01/04 02:32:33;;;;;;;6.23;1.30;;;;;;;-145.18;100.00;60484.78;5064637;28;20090;-63
2023/01/04 02:35:11;;;;;;;4.17;1.20;;;;;;;-145.18;100.00;60484.78;5054999;28;20048;-63
2023/01/04 02:37:51;;;;;;;6.47;1.60;;;;;;;-145.18;100.00;60484.78;5057639;28;20025;-64
2023/01/04 02:40:36;;;;;;;3.47;1.30;;;;;;;-145.18;100.00;60484.78;5054942;28;20361;-63
2023/01/04 02:46:43;;;;;;;5.20;1.40;;;;;;;-145.18;100.00;60484.78;5042626;28;20384;-63
2023/01/04 02:51:53;;;;;;;7.40;1.90;;;;;;;-145.18;100.00;60484.78;5057386;28;20101;-63
2023/01/04 02:54:28;;;;;;;6.07;1.20;;;;;;;-145.18;100.00;60484.78;5063316;28;20028;-63
2023/01/04 02:57:06;;;;;;;8.80;1.77;;;;;;;-145.18;100.00;60484.78;5069265;28;20043;-63
2023/01/04 02:59:49;;;;;;;6.50;1.77;;;;;;;-145.18;100.00;60484.78;5059321;28;20087;-63
2023/01/04 03:08:38;;;;;;;180.90;6.17;;;;;;;-145.18;100.00;60484.78;5057406;28;20074;-65
2023/01/04 03:12:30;;;;;;;4.40;1.77;;;;;;;-145.18;100.00;60484.78;5060010;28;20040;-64
2023/01/04 03:14:27;;;;;;;5.10;1.40;;;;;;;-145.18;100.00;60484.78;5064697;28;20032;-64
2023/01/04 03:16:54;;;;;;;61.23;3.70;;;;;;;-145.18;100.00;60484.78;5066423;28;20514;-64
2023/01/04 03:35:21;;;;;;;59.73;2.47;;;;;;;-145.18;100.00;60484.78;5061420;28;20135;-64
2023/01/04 03:36:23;;;;;;;5.57;2.27;;;;;;;-145.18;100.00;60484.78;5059173;28;20485;-64
2023/01/04 03:48:33;;;;;;;26.63;2.77;;;;;;;-145.18;100.00;60484.78;5056746;28;20130;-64
2023/01/04 03:51:07;;;;;;;6.73;2.60;;;;;;;-145.18;100.00;60484.78;5063691;28;20031;-64
2023/01/04 03:53:39;;;;;;;9.27;2.97;;;;;;;-145.18;100.00;60484.78;5067313;28;20368;-64
2023/01/04 03:56:08;;;;;;;5.85;2.80;;;;;;;-145.18;100.00;60484.78;5064172;28;20116;-63
2023/01/04 03:58:34;;;;;;;4.20;2.13;;;;;;;-145.18;100.00;60484.78;5061992;28;20047;-63
2023/01/04 04:01:02;;;;;;;7.87;2.07;;;;;;;-145.18;100.00;60484.78;5055159;28;20064;-63
2023/01/04 04:08:59;;;;;;;9.37;3.47;;;;;;;-145.18;100.00;60484.78;5058022;28;20040;-63
2023/01/04 04:11:31;;;;;;;7.13;2.60;;;;;;;-145.18;100.00;60484.78;5052014;28;20376;-65
2023/01/04 04:13:58;;;;;;;5.23;2.57;;;;;;;-145.18;100.00;60484.78;5054905;28;20033;-65
2023/01/04 04:16:24;;;;;;;9.43;2.60;;;;;;;-145.18;100.00;60484.78;5056472;28;20387;-64
2023/01/04 04:18:50;;;;;;;7.63;3.10;;;;;;;-145.18;100.00;60484.78;5062395;28;20036;-63
2023/01/04 04:21:15;;;;;;;74.43;3.40;;;;;;;-145.18;100.00;60484.78;5059845;28;20036;-64
2023/01/04 04:23:40;;;;;;;4.30;2.50;;;;;;;-145.18;100.00;60484.78;5053443;28;20477;-64
2023/01/04 04:26:06;;;;;;;6.23;3.20;;;;;;;-145.18;100.00;60484.78;5059032;28;20037;-64
2023/01/04 04:28:32;;;;;;;32.83;2.90;;;;;;;-145.18;100.00;60484.78;5063033;28;20066;-64
2023/01/04 04:30:58;;;;;;;5.00;2.60;;;;;;;-145.18;100.00;60484.78;5055112;28;20032;-64
2023/01/04 04:33:23;;;;;;;5.13;2.60;;;;;;;-145.18;100.00;60484.78;5058816;28;20036;-65
2023/01/04 04:35:50;;;;;;;18.47;2.90;;;;;;;-145.18;100.00;60484.78;5059077;28;20111;-64
2023/01/04 04:38:16;;;;;;;4.87;2.80;;;;;;;-145.18;100.00;60484.78;5059967;28;20025;-64
2023/01/04 04:43:25;;;;;;;5.63;2.63;;;;;;;-145.18;100.00;60484.78;5059292;28;20078;-63
2023/01/04 04:45:50;;;;;;;165.80;6.20;;;;;;;-145.18;100.00;60484.78;5053503;28;20030;-63
2023/01/04 04:48:16;;;;;;;3.70;1.87;;;;;;;-145.18;100.00;60484.78;5058287;28;20032;-63
2023/01/04 04:50:41;;;;;;;138.13;5.00;;;;;;;-145.18;100.00;60484.78;5054852;28;20468;-63
2023/01/04 04:53:06;;;;;;;7.07;3.50;;;;;;;-145.18;100.00;60484.78;5057741;28;20040;-63
2023/01/04 04:55:32;;;;;;;9.10;3.13;;;;;;;-145.18;100.00;60484.78;5058027;28;20029;-63
2023/01/04 04:57:57;;;;;;;4.90;2.73;;;;;;;-145.18;100.00;60484.78;5063695;28;20029;-63
2023/01/04 05:00:23;;;;;;;6.07;3.60;;;;;;;-145.18;100.00;60484.78;5052441;28;20630;-62
2023/01/04 05:02:48;;;;;;;5.57;2.73;;;;;;;-145.18;100.00;60484.78;5060734;28;20044;-63
2023/01/04 05:05:13;;;;;;;245.80;8.43;;;;;;;-145.18;100.00;60484.78;5062565;28;20546;-62
2023/01/04 05:07:39;;;;;;;5.23;3.47;;;;;;;-145.18;100.00;60484.78;5057413;28;20029;-63
2023/01/04 05:10:05;;;;;;;7.93;3.67;;;;;;;-145.18;100.00;60484.78;5060078;28;20021;-65
2023/01/04 05:15:14;;;;;;;7.23;4.30;;;;;;;-145.18;100.00;60484.78;5062036;28;20032;-64
2023/01/04 05:17:39;;;;;;;7.20;4.20;;;;;;;-145.18;100.00;60484.78;5054196;28;20036;-63
2023/01/04 05:20:05;;;;;;;8.40;4.80;;;;;;;-145.18;100.00;60484.78;5062794;28;20461;-63
2023/01/04 05:22:30;;;;;;;7.63;5.17;;;;;;;-145.18;100.00;60484.78;5047825;28;20063;-64
2023/01/04 05:24:56;;;;;;;7.80;3.97;;;;;;;-145.18;100.00;60484.78;5057198;28;20039;-64
2023/01/04 05:27:21;;;;;;;105.37;5.83;;;;;;;-145.18;100.00;60484.78;5066179;28;20029;-63
2023/01/04 05:32:31;;;;;;;8.03;4.43;;;;;;;-145.18;100.00;60484.78;5054096;28;20079;-63
2023/01/04 05:34:56;;;;;;;128.33;7.30;;;;;;;-145.18;100.00;60484.78;5062179;28;20119;-63
2023/01/04 05:37:21;;;;;;;138.07;6.87;;;;;;;-145.18;100.00;60484.78;5051331;28;20033;-63
2023/01/04 05:39:47;;;;;;;9.10;5.50;;;;;;;-145.18;100.00;60484.78;5045712;28;20031;-64
2023/01/04 05:42:24;;;;;;;49.97;6.60;;;;;;;-145.18;100.00;60484.78;5044678;28;20024;-63
2023/01/04 05:44:51;;;;;;;7.87;4.47;;;;;;;-145.18;100.00;60484.78;5036960;28;20041;-63
2023/01/04 05:47:17;;;;;;;348.37;15.07;;;;;;;-145.18;100.00;60484.78;5033219;28;20076;-63
2023/01/04 05:49:43;;;;;;;9.53;6.67;;;;;;;-145.18;100.00;60484.78;5049499;28;20060;-63
2023/01/04 05:52:08;;;;;;;8.00;5.37;;;;;;;-145.18;100.00;60484.78;5054159;28;20067;-63
2023/01/04 05:54:34;;;;;;;8.20;5.53;;;;;;;-145.18;100.00;60484.78;5051755;28;20760;-64
2023/01/04 05:56:59;;;;;;;10.77;6.97;;;;;;;-145.18;100.00;60484.78;5053935;28;20123;-63
2023/01/04 05:59:25;;;;;;;7.37;4.57;;;;;;;-145.18;100.00;60484.78;5052499;28;20107;-64
2023/01/04 06:01:50;;;;;;;7.70;5.03;;;;;;;-145.18;100.00;60484.78;5051322;28;20075;-64
2023/01/04 06:04:15;;;;;;;21.33;5.50;;;;;;;-145.18;100.00;60484.78;5053609;28;20045;-64
2023/01/04 06:06:41;;;;;;;6.97;5.03;;;;;;;-145.18;100.00;60484.78;5053987;28;20078;-63
2023/01/04 06:09:06;;;;;;;8.27;5.37;;;;;;;-145.18;100.00;60484.78;5053864;28;20032;-64
2023/01/04 06:11:31;;;;;;;11.57;7.20;;;;;;;-145.18;100.00;60484.78;5052714;28;20059;-63
2023/01/04 06:13:57;;;;;;;7.90;5.60;;;;;;;-145.18;100.00;60484.78;5053820;28;20025;-63
2023/01/04 06:16:22;;;;;;;193.13;9.13;;;;;;;-145.18;100.00;60484.78;5053411;28;20028;-64
2023/01/04 06:18:48;;;;;;;10.53;7.13;;;;;;;-145.18;100.00;60484.78;5052938;28;20084;-64
2023/01/04 06:21:13;;;;;;;11.17;6.80;;;;;;;-145.18;100.00;60484.78;5052079;28;20029;-63
2023/01/04 06:23:39;;;;;;;10.23;5.60;;;;;;;-145.18;100.00;60484.78;5052627;28;20029;-64
2023/01/04 06:26:04;;;;;;;8.53;5.80;;;;;;;-145.18;100.00;60484.78;5051607;28;20040;-64
2023/01/04 06:28:30;;;;;;;10.20;6.00;;;;;;;-145.18;100.00;60484.78;5053883;28;20029;-65
2023/01/04 06:30:55;;;;;;;6.53;4.87;;;;;;;-145.18;100.00;60484.78;5053007;28;20029;-64
2023/01/04 06:33:20;;;;;;;10.73;6.53;;;;;;;-145.18;100.00;60484.78;5053005;28;20028;-64
2023/01/04 06:35:54;;;;;;;9.00;6.00;;;;;;;-145.18;100.00;60484.78;5052969;28;20025;-64
2023/01/04 06:38:19;;;;;;;9.50;6.60;;;;;;;-145.18;100.00;60484.78;5053386;28;20035;-64
2023/01/04 06:40:45;;;;;;;9.70;6.67;;;;;;;-145.18;100.00;60484.78;5052024;28;20029;-64
2023/01/04 06:43:10;;;;;;;68.60;6.77;;;;;;;-145.18;100.00;60484.78;5052697;28;20045;-64
2023/01/04 06:45:35;;;;;;;9.77;6.27;;;;;;;-145.18;100.00;60484.78;5052262;28;20503;-63
2023/01/04 06:48:01;;;;;;;517.43;17.73;;;;;;;-145.18;100.00;60484.78;5051828;28;20128;-63
2023/01/04 06:50:26;;;;;;;408.73;19.03;;;;;;;-145.18;100.00;60484.78;5051106;28;20033;-63
2023/01/04 06:52:51;;;;;;;8.50;4.80;;;;;;;-145.18;100.00;60484.78;5050397;28;20128;-63
2023/01/04 06:55:17;;;;;;;248.23;9.33;;;;;;;-145.18;100.00;60484.78;5049507;28;20468;-64
2023/01/04 06:57:42;;;;;;;8.27;4.77;;;;;;;-145.18;100.00;60484.78;5051466;28;20056;-63
2023/01/04 07:00:08;;;;;;;97.83;6.00;;;;;;;-145.18;100.00;60484.78;5050985;28;20071;-63
2023/01/04 07:02:34;;;;;;;77.93;6.00;;;;;;;-145.18;100.00;60484.78;5051092;28;20556;-64
2023/01/04 07:04:59;;;;;;;107.27;6.53;;;;;;;-145.18;100.00;60484.78;5052302;28;20116;-63
2023/01/04 07:07:25;;;;;;;7.00;4.23;;;;;;;-145.18;100.00;60484.78;5052497;28;20465;-63
2023/01/04 07:09:50;;;;;;;7.57;4.70;;;;;;;-145.18;100.00;60484.78;5051931;28;20068;-63
2023/01/04 07:12:15;;;;;;;8.40;5.03;;;;;;;-145.18;100.00;60484.78;5049073;28;20037;-63
2023/01/04 07:14:41;;;;;;;7.43;4.80;;;;;;;-145.18;100.00;60484.78;5052680;28;20025;-63
2023/01/04 07:17:06;;;;;;;5.93;3.07;;;;;;;-145.18;100.00;60484.78;5052343;28;20036;-63
2023/01/04 07:19:31;;;;;;;8.97;5.00;;;;;;;-145.18;100.00;60484.78;5051338;28;20025;-63
2023/01/04 07:21:57;;;;;;;6.50;4.77;;;;;;;-145.18;100.00;60484.78;5049660;28;20033;-63
2023/01/04 07:24:24;;;;;;;5.50;3.90;;;;;;;-145.18;100.00;60484.78;5049431;28;20025;-63
2023/01/04 07:26:49;;;;;;;45.77;5.30;;;;;;;-145.18;100.00;60484.78;5050310;28;20043;-63
2023/01/04 07:29:15;;;;;;;59.80;5.43;;;;;;;-145.18;100.00;60484.78;5051322;28;20419;-63
2023/01/04 07:31:51;;;;;;;5.53;4.23;;;;;;;-145.18;100.00;60484.78;5050305;28;20606;-62
2023/01/04 07:34:18;;;;;;;6.07;3.70;;;;;;;-145.18;100.00;60484.78;5051775;28;20040;-63
2023/01/04 07:36:43;;;;;;;5.60;4.00;;;;;;;-145.18;100.00;60484.78;5051003;28;20032;-65
2023/01/04 07:39:10;;;;;;;6.83;4.60;;;;;;;-145.18;100.00;60484.78;5051904;28;20024;-66
2023/01/04 07:41:37;;;;;;;8.30;3.07;;;;;;;-145.18;100.00;60484.78;5050404;28;20029;-65
2023/01/04 07:44:03;;;;;;;5.53;3.70;;;;;;;-145.18;100.00;60484.78;5050731;28;20029;-63
2023/01/04 07:46:28;;;;;;;5.53;3.10;;;;;;;-145.18;100.00;60484.78;5051866;28;20036;-65
2023/01/04 07:48:54;;;;;;;5.80;3.80;;;;;;;-145.18;100.00;60484.78;5052116;28;20032;-64
2023/01/04 07:51:19;;;;;;;5.23;3.20;;;;;;;-145.18;100.00;60484.78;5051653;28;20361;-66
2023/01/04 07:53:44;;;;;;;6.53;4.03;;;;;;;-145.18;100.00;60484.78;5051202;28;20074;-66
2023/01/04 07:56:10;;;;;;;39.27;2.70;;;;;;;-145.18;100.00;60484.78;5050340;28;20028;-64
2023/01/04 07:58:38;;;;;;;6.63;3.27;;;;;;;-145.18;100.00;60484.78;5051804;28;20043;-65
2023/01/04 08:01:13;;;;;;;6.10;3.80;;;;;;;-145.18;100.00;60484.78;5051839;28;20155;-66
2023/01/04 08:03:39;;;;;;;3.90;2.37;;;;;;;-145.18;100.00;60484.78;5049417;28;20029;-65
2023/01/04 08:06:06;;;;;;;5.30;3.10;;;;;;;-145.18;100.00;60484.78;5051765;28;20484;-63
2023/01/04 08:08:32;;;;;;;5.43;3.00;;;;;;;-145.18;100.00;60484.78;5051848;28;20613;-64
2023/01/04 08:11:13;;;;;;;4.20;2.77;;;;;;;-145.18;100.00;60484.78;5051632;28;20140;-65
2023/01/04 08:13:39;;;;;;;5.73;2.70;;;;;;;-145.18;100.00;60484.78;5049668;28;20033;-63
2023/01/04 08:16:05;;;;;;;4.80;2.17;;;;;;;-145.18;100.00;60484.78;5051717;28;20533;-64
2023/01/04 08:18:30;;;;;;;4.87;2.90;;;;;;;-145.18;100.00;60484.78;5051664;28;20108;-64
2023/01/04 08:21:05;;;;;;;4.57;2.30;;;;;;;-145.18;100.00;60484.78;5051350;28;20028;-64
2023/01/04 08:23:31;;;;;;;38.30;2.37;;;;;;;-145.18;100.00;60484.78;5054411;28;20452;-64
2023/01/04 08:26:12;;;;;;;4.10;2.03;;;;;;;-145.18;100.00;60484.78;5055813;28;20037;-65
2023/01/04 08:28:38;;;;;;;3.93;2.33;;;;;;;-145.18;100.00;60484.78;5054524;28;20494;-65
2023/01/04 08:31:12;;;;;;;4.07;2.40;;;;;;;-145.18;100.00;60484.78;5053505;28;20075;-65
2023/01/04 08:33:38;;;;;;;3.20;1.80;;;;;;;-145.18;100.00;60484.78;5053265;28;20032;-64
2023/01/04 08:36:28;;;;;;;2.90;1.87;;;;;;;-145.18;100.00;60484.78;5055008;28;20079;-65
2023/01/04 08:38:56;;;;;;;2.57;1.50;;;;;;;-145.18;100.00;60484.78;5054984;28;20103;-62
2023/01/04 08:41:22;;;;;;;2.73;1.50;;;;;;;-145.18;100.00;60484.78;5052694;28;20452;-62
2023/01/04 08:43:47;;;;;;;2.40;1.37;;;;;;;-145.18;100.00;60484.78;5054449;28;20040;-64
2023/01/04 08:46:13;;;;;;;1.93;1.03;;;;;;;-145.18;100.00;60484.78;5054648;28;20505;-65
2023/01/04 08:48:39;;;;;;;3.50;1.77;;;;;;;-145.18;100.00;60484.78;5054581;28;20035;-64
2023/01/04 08:51:08;;;;;;;2.63;1.43;;;;;;;-145.18;100.00;60484.78;5053651;28;20017;-64
2023/01/04 08:53:34;;;;;;;4.03;2.07;;;;;;;-145.18;100.00;60484.78;5054525;28;20021;-64
2023/01/04 08:55:59;;;;;;;3.13;1.80;;;;;;;-145.18;100.00;60484.78;5054435;28;20468;-65
2023/01/04 08:58:26;;;;;;;4.00;2.00;;;;;;;-145.18;100.00;60484.78;5053938;28;20033;-63
2023/01/04 09:00:51;;;;;;;4.90;2.23;;;;;;;-145.18;100.00;60484.78;5054401;28;20029;-63
2023/01/04 09:03:17;;;;;;;3.50;2.07;;;;;;;-145.18;100.00;60484.78;5054491;28;20035;-63
2023/01/04 09:05:43;;;;;;;3.77;2.03;;;;;;;-145.18;100.00;60484.78;5054768;28;20036;-63
2023/01/04 09:08:09;;;;;;;4.00;2.37;;;;;;;-145.18;100.00;60484.78;5055072;28;20029;-62
2023/01/04 09:10:37;;;;;;;3.53;1.50;;;;;;;-145.18;100.00;60484.78;5054602;28;20048;-62
2023/01/04 09:13:02;;;;;;;4.67;2.60;;;;;;;-145.18;100.00;60484.78;5053991;28;20444;-63
2023/01/04 09:15:28;;;;;;;3.90;2.23;;;;;;;-145.18;100.00;60484.78;5054737;28;20032;-62
2023/01/04 09:17:53;;;;;;;4.50;2.80;;;;;;;-145.18;100.00;60484.78;5054993;28;20032;-62
2023/01/04 09:20:18;;;;;;;4.97;2.70;;;;;;;-145.18;100.00;60484.78;5054656;28;20032;-62
2023/01/04 09:22:44;;;;;;;5.90;2.30;;;;;;;-145.18;100.00;60484.78;5053103;28;20475;-63
2023/01/04 09:25:09;;;;;;;4.33;2.43;;;;;;;-145.18;100.00;60484.78;5053402;28;20025;-64
2023/01/04 09:27:35;;;;;;;4.30;2.33;;;;;;;-145.18;100.00;60484.78;5052874;28;20172;-63
2023/01/04 09:30:00;;;;;;;5.33;2.73;;;;;;;-145.18;100.00;60484.78;5054470;28;20388;-63
2023/01/04 09:32:26;;;;;;;3.87;2.03;;;;;;;-145.18;100.00;60484.78;5053184;28;20106;-61
2023/01/04 09:34:52;;;;;;;4.83;3.03;;;;;;;-145.18;100.00;60484.78;5054594;28;20029;-62
2023/01/04 09:37:17;;;;;;;5.23;2.40;;;;;;;-145.18;100.00;60484.78;5054244;28;20033;-63
2023/01/04 09:39:43;;;;;;;6.57;2.90;;;;;;;-145.18;100.00;60484.78;5052191;28;20028;-63
2023/01/04 09:42:20;;;;;;;3.33;1.80;;;;;;;-145.18;100.00;60484.78;5052534;28;20032;-64
2023/01/04 09:44:50;;;;;;;5.83;2.90;;;;;;;-145.18;100.00;60484.78;5054165;28;20039;-64
2023/01/04 09:47:36;;;;;;;3.73;2.00;;;;;;;-145.18;100.00;60484.78;5054261;28;20512;-62
2023/01/04 09:50:12;;;;;;;8.20;2.10;;;;;;;-145.18;100.00;60484.78;5051282;28;20102;-63
2023/01/04 09:52:46;;;;;;;3.10;1.60;;;;;;;-145.18;100.00;60484.78;5054026;28;20024;-63
2023/01/04 09:55:40;;;;;;;3.10;1.80;;;;;;;-145.18;100.00;60484.78;5054073;28;20028;-64
2023/01/04 09:58:29;;;;;;;2.60;1.53;;;;;;;-145.18;100.00;60484.78;5050206;28;20442;-63
2023/01/04 10:01:01;;;;;;;3.53;1.90;;;;;;;-145.18;100.00;60484.78;5054086;28;20396;-63
2023/01/04 10:03:28;;;;;;;;;;;;;;;-145.18;100.00;60484.78;5054087;28;20029;-62
2023/01/04 10:05:55;;;;;;;4.73;1.47;;;;;;;-145.18;100.00;60484.78;5053654;28;19913;-63
2023/01/04 10:08:21;;;;;;;4.90;2.17;;;;;;;-145.18;100.00;60484.78;5052102;28;20056;-64
2023/01/04 10:11:24;;;;;;;3.57;1.87;;;;;;;-145.18;100.00;60484.78;5053147;28;20020;-63
2023/01/04 10:14:20;;;;;;;3.13;1.50;;;;;;;-145.18;100.00;60484.78;5052991;28;20056;-63
2023/01/04 10:16:53;;;;;;;8.73;1.90;;;;;;;-145.18;100.00;60484.78;5052202;28;20116;-62
2023/01/04 10:19:43;;;;;;;2.00;1.20;;;;;;;-145.18;100.00;60484.78;5052711;28;20033;-63
2023/01/04 10:22:25;;;;;;;3.90;1.73;;;;;;;-145.18;100.00;60484.78;5053547;28;20113;-63
2023/01/04 10:25:28;;;;;;;3.93;1.80;;;;;;;-145.18;100.00;60484.78;5053338;28;20028;-63
2023/01/04 10:27:59;;;;;;;3.60;1.50;;;;;;;-145.18;100.00;60484.78;4998803;28;20098;-63
2023/01/04 10:30:52;;;;;;;2.50;1.50;;;;;;;-145.18;100.00;60484.78;4991637;28;20022;-64
2023/01/04 10:33:30;;;;;;;2.50;1.20;;;;;;;-145.18;100.00;60484.78;4993921;28;20460;-62
2023/01/04 10:35:56;;;;;;;3.37;1.53;;;;;;;-145.18;100.00;60484.78;5009145;28;20057;-63
2023/01/04 10:38:26;;;;;;;2.50;0.90;;;;;;;-145.18;100.00;60484.78;5011059;28;20038;-64
2023/01/04 10:40:56;;;;;;;2.70;1.20;;;;;;;-145.18;100.00;60484.78;5002468;28;20026;-62
2023/01/04 10:43:33;;;;;;;1.43;0.93;;;;;;;-145.18;100.00;60484.78;4998595;28;20138;-63
2023/01/04 10:46:06;;;;;;;2.87;1.10;;;;;;;-145.18;100.00;60484.78;5010260;28;20034;-64
2023/01/04 10:48:58;;;;;;;2.70;1.30;;;;;;;-145.18;100.00;60484.78;5010943;28;20108;-63
2023/01/04 10:51:31;;;;;;;2.77;1.40;;;;;;;-145.18;100.00;60484.78;5009056;28;20397;-64
2023/01/04 10:54:05;;;;;;;1.97;1.00;;;;;;;-145.18;100.00;60484.78;4998443;28;20116;-62
2023/01/04 10:57:08;;;;;;;1.33;0.73;;;;;;;-145.18;100.00;60484.78;5010850;28;20026;-64
2023/01/04 10:59:44;;;;;;;3.43;1.40;;;;;;;-145.18;100.00;60484.78;5045390;28;20037;-63
2023/01/04 11:02:24;;;;;;;2.50;1.20;;;;;;;-145.18;100.00;60484.78;5052835;28;20036;-63
2023/01/04 11:05:05;;;;;;;1.50;0.90;;;;;;;-145.18;100.00;60484.78;5032686;28;20041;-63
2023/01/04 11:07:38;;;;;;;2.00;1.02;;;;;;;-145.18;100.00;60484.78;5032601;28;20030;-63
2023/01/04 11:10:12;;;;;;;2.07;1.10;;;;;;;-145.18;100.00;60484.78;5034935;28;20031;-63
2023/01/04 11:12:37;;;;;;;1.80;1.00;;;;;;;-145.18;100.00;60484.78;5050583;28;20033;-62
2023/01/04 11:15:03;;;;;;;1.53;0.83;;;;;;;-145.18;100.00;60484.78;5051275;28;20028;-64
2023/01/04 11:17:31;;;;;;;2.10;1.00;;;;;;;-145.18;100.00;60484.78;5052373;28;20357;-63
2023/01/04 11:19:57;;;;;;;1.43;0.90;;;;;;;-145.18;100.00;60484.78;5047980;28;20033;-63
2023/01/04 11:22:35;;;;;;;1.40;0.87;;;;;;;-145.18;100.00;60484.78;5050945;28;20108;-63
2023/01/04 11:25:05;;;;;;;1.57;0.77;;;;;;;-145.18;100.00;60484.78;5049715;28;20352;-65
2023/01/04 11:27:39;;;;;;;1.60;1.00;;;;;;;-145.18;100.00;60484.78;5051519;28;20031;-66
2023/01/04 11:30:23;;;;;;;2.00;1.10;;;;;;;-145.18;100.00;60484.78;5051761;28;20074;-63
2023/01/04 11:32:52;;;;;;;1.30;0.90;;;;;;;-145.18;100.00;60484.78;5051983;28;20032;-65
2023/01/04 11:35:43;;;;;;;1.57;0.80;;;;;;;-145.18;100.00;60484.78;5051034;28;20511;-67
2023/01/04 11:38:17;;;;;;;2.28;1.00;;;;;;;-145.18;100.00;60484.78;5049146;28;20087;-66
2023/01/04 11:40:55;;;;;;;1.30;0.80;;;;;;;-145.18;100.00;60484.78;5051929;28;20029;-63
2023/01/04 11:43:21;;;;;;;40.37;1.77;;;;;;;-145.18;100.00;60484.78;5046449;28;20085;-62
2023/01/04 11:45:57;;;;;;;1.10;0.70;;;;;;;-145.18;100.00;60484.78;5051873;28;20024;-63
2023/01/04 11:48:40;;;;;;;4.40;1.13;;;;;;;-145.18;100.00;60484.78;5050186;28;20036;-66
2023/01/04 11:51:35;;;;;;;1.70;1.00;;;;;;;-145.18;100.00;60484.78;5052241;28;20468;-64
2023/01/04 11:54:06;;;;;;;2.20;1.00;;;;;;;-145.18;100.00;60484.78;5031989;28;20021;-63
2023/01/04 11:56:34;;;;;;;1.05;0.70;;;;;;;-145.18;100.00;60484.78;5040438;28;20473;-62
2023/01/04 11:59:16;;;;;;;1.00;0.77;;;;;;;-145.18;100.00;60484.78;5051979;28;20028;-63
2023/01/04 12:01:47;;;;;;;1.93;0.87;;;;;;;-145.18;100.00;60484.78;5051919;28;20021;-63
2023/01/04 12:04:21;;;;;;;1.40;0.83;;;;;;;-145.18;100.00;60484.78;5051146;28;20052;-63
2023/01/04 12:06:54;;;;;;;2.10;1.20;;;;;;;-145.18;100.00;60484.78;5050272;28;20036;-63
2023/01/04 12:09:20;;;;;;;2.37;1.00;;;;;;;-145.18;100.00;60484.78;5051805;28;20150;-63